»·PEaware :: UAL291 KDEN-KLAX

UAL291 :: KDEN-KLAX

FLIGHT INFORMATION

Flight Status: Arrived
Operator:
United Airlines
More flights by this operator :: More flights under this callsign
Pilot: Jac C. (16067)
Aircraft: BOEING 737-800
(B738)
More flights by this aircraft type
Origin: KDEN Denver Intl
United States
Destination: KLAX Los Angeles Intl
United States
More flights between these airports :: More routes between these airports
Route: +BAYLR3 TEHRU JASSE Q90 DNERO ANJLL3
File this flight plan on PilotEdge
Remarks: PBN / A1B1C1D1S1S2 DOF / 180527 REG / N806SB EET / KZLA0103 OPR / UAL PER / C RMK / TCAS
Altitude:
(Current/Filed)
36,000ft
Speed:
(Current/Filed)
455kts
Departed: 27-May-18 09:06 AM
Arrived: 27-May-18 11:21 AM
Distance/Time
Traveled:
747nm/2:15
Distance/Time
To Go:
Arrived

Flight Plot

Page will automatically refresh every two minutes.

Flight plan parsing failed; only flown route is shown


Map Options




Map Legend


Flown Route
Filed Route
Departure Airport
Arrival Airport
Navaid (VOR, NDB)
Fix

Horizontal Profiles

Position Reports

Time Latitude Longitude Heading Altitude Ground
Speed
27-May-18 08:33 39.859379 -104.671384 180 5332ft 0kts
27-May-18 08:34 39.859379 -104.671384 180 5332ft 0kts
27-May-18 08:35 39.859379 -104.671384 180 5332ft 0kts
27-May-18 08:36 39.859379 -104.671384 180 5332ft 0kts
27-May-18 08:37 39.859379 -104.671384 180 5332ft 0kts
27-May-18 08:38 39.859379 -104.671384 180 5332ft 0kts
27-May-18 08:39 39.859379 -104.671384 180 5332ft 0kts
27-May-18 08:40 39.859379 -104.671384 180 5332ft 0kts
27-May-18 08:41 39.859379 -104.671384 180 5332ft 0kts
27-May-18 08:42 39.859379 -104.671384 180 5332ft 0kts
27-May-18 08:43 39.859379 -104.671384 180 5332ft 0kts
27-May-18 08:44 39.859379 -104.671384 180 5332ft 0kts
27-May-18 08:45 39.859379 -104.671384 180 5332ft 0kts
27-May-18 08:46 39.859379 -104.671384 180 5332ft 0kts
27-May-18 08:47 39.859379 -104.671384 180 5332ft 0kts
27-May-18 08:48 39.859379 -104.671384 180 5332ft 0kts
27-May-18 08:49 39.859393 -104.671385 180 5332ft 1kts
27-May-18 08:50 39.859979 -104.671205 229 5332ft 2kts
27-May-18 08:51 39.860045 -104.670905 270 5332ft 0kts
27-May-18 08:52 39.860045 -104.670905 270 5332ft 0kts
27-May-18 08:53 39.860045 -104.670905 270 5332ft 0kts
27-May-18 08:54 39.860045 -104.670905 270 5332ft 0kts
27-May-18 08:55 39.860064 -104.673005 270 5332ft 8kts
27-May-18 08:56 39.860080 -104.674733 270 5332ft 6kts
27-May-18 08:57 39.860105 -104.677442 270 5332ft 11kts
27-May-18 08:58 39.860356 -104.679414 320 5332ft 5kts
27-May-18 08:59 39.860746 -104.680897 269 5332ft 0kts
27-May-18 09:00 39.860746 -104.680898 269 5332ft 0kts
27-May-18 09:01 39.861523 -104.681988 359 5332ft 10kts
27-May-18 09:02 39.864245 -104.682299 295 5332ft 11kts
27-May-18 09:03 39.864328 -104.685626 270 5332ft 6kts
27-May-18 09:04 39.864329 -104.685719 270 5332ft 0kts
27-May-18 09:05 39.864703 -104.687197 0 5332ft 3kts
27-May-18 09:06 39.886157 -104.686972 356 5417ft 167kts
27-May-18 09:07 39.929189 -104.715987 285 7498ft 215kts
27-May-18 09:08 39.898757 -104.793003 231 9227ft 265kts
27-May-18 09:09 39.850408 -104.867088 232 10294ft 269kts
27-May-18 09:10 39.808630 -104.937724 240 11592ft 258kts
27-May-18 09:11 39.779238 -104.996231 240 13472ft 267kts
27-May-18 09:12 39.765045 -105.028878 248 14615ft 264kts
27-May-18 09:13 39.751111 -105.068608 249 15956ft 264kts
27-May-18 09:14 39.720814 -105.154614 250 18668ft 263kts
27-May-18 09:15 39.689831 -105.241422 250 20418ft 293kts
27-May-18 09:16 39.674130 -105.285325 249 20890ft 317kts
27-May-18 09:17 39.634025 -105.396753 249 22213ft 355kts
27-May-18 09:18 39.591548 -105.514072 249 24337ft 362kts
27-May-18 09:19 39.548591 -105.633295 252 26249ft 367kts
27-May-18 09:20 39.513930 -105.758599 253 27903ft 373kts
27-May-18 09:21 39.479062 -105.886576 253 29397ft 379kts
27-May-18 09:22 39.443114 -106.015361 252 30856ft 380kts
27-May-18 09:23 39.407113 -106.143103 252 32496ft 373kts
27-May-18 09:24 39.371776 -106.268202 252 33973ft 368kts
27-May-18 09:25 39.336991 -106.392014 252 35204ft 366kts
27-May-18 09:26 39.301915 -106.515594 251 36256ft 367kts
27-May-18 09:27 39.266435 -106.639366 251 36243ft 365kts
27-May-18 09:28 39.220850 -106.756074 238 36229ft 370kts
27-May-18 09:29 39.159817 -106.863355 237 36222ft 371kts
27-May-18 09:30 39.098310 -106.969853 237 36229ft 370kts
27-May-18 09:31 39.036536 -107.076008 237 36242ft 371kts
27-May-18 09:32 38.974763 -107.182762 236 36249ft 371kts
27-May-18 09:33 38.912964 -107.288763 236 36249ft 371kts
27-May-18 09:34 38.850825 -107.394798 236 36245ft 371kts
27-May-18 09:35 38.788606 -107.500542 236 36237ft 371kts
27-May-18 09:36 38.726345 -107.605972 236 36216ft 371kts
27-May-18 09:37 38.663686 -107.711719 236 36207ft 372kts
27-May-18 09:38 38.601113 -107.816959 236 36206ft 372kts
27-May-18 09:39 38.538337 -107.922209 235 36208ft 372kts
27-May-18 09:40 38.475276 -108.027596 235 36210ft 373kts
27-May-18 09:41 38.412241 -108.132578 235 36216ft 373kts
27-May-18 09:42 38.348920 -108.237716 235 36226ft 373kts
27-May-18 09:43 38.285704 -108.342333 235 36230ft 373kts
27-May-18 09:44 38.222409 -108.446750 235 36230ft 373kts
27-May-18 09:45 38.158833 -108.551294 235 36228ft 373kts
27-May-18 09:46 38.095377 -108.655304 235 36232ft 373kts
27-May-18 09:47 38.031910 -108.759004 235 36232ft 372kts
27-May-18 09:48 37.968084 -108.862971 234 36235ft 374kts
27-May-18 09:49 37.904145 -108.966781 234 36241ft 373kts
27-May-18 09:50 37.839991 -109.070606 234 36250ft 373kts
27-May-18 09:51 37.775958 -109.173917 234 36262ft 373kts
27-May-18 09:52 37.711899 -109.276949 234 36274ft 373kts
27-May-18 09:53 37.647564 -109.380096 234 36285ft 373kts
27-May-18 09:54 37.583388 -109.482669 234 36290ft 373kts
27-May-18 09:55 37.519109 -109.585078 234 36288ft 373kts
27-May-18 09:56 37.454532 -109.687660 234 36282ft 373kts
27-May-18 09:57 37.390090 -109.789707 234 36274ft 373kts
27-May-18 09:58 37.325358 -109.891896 234 36265ft 373kts
27-May-18 09:59 37.260656 -109.993725 233 36256ft 374kts
27-May-18 10:00 37.195857 -110.095400 233 36245ft 373kts
27-May-18 10:01 37.130763 -110.197216 233 36232ft 373kts
27-May-18 10:02 37.065780 -110.298552 233 36220ft 374kts
27-May-18 10:03 37.000554 -110.399961 233 36208ft 374kts
27-May-18 10:04 36.935050 -110.501489 233 36196ft 374kts
27-May-18 10:05 36.869676 -110.602513 233 36183ft 374kts
27-May-18 10:06 36.803996 -110.703698 233 36174ft 374kts
27-May-18 10:07 36.738455 -110.804368 233 36162ft 374kts
27-May-18 10:08 36.672857 -110.904834 232 36158ft 374kts
27-May-18 10:09 36.606974 -111.005424 232 36155ft 374kts
27-May-18 10:10 36.541234 -111.105507 232 36151ft 374kts
27-May-18 10:11 36.475457 -111.205339 232 36150ft 373kts
27-May-18 10:12 36.409401 -111.305316 232 36152ft 373kts
27-May-18 10:13 36.343490 -111.404776 232 36156ft 373kts
27-May-18 10:14 36.277307 -111.504380 232 36165ft 373kts
27-May-18 10:15 36.211461 -111.603533 232 36170ft 373kts
27-May-18 10:16 36.145325 -111.702303 232 36175ft 373kts
27-May-18 10:17 36.080465 -111.802596 239 36183ft 372kts
27-May-18 10:18 36.038243 -111.918849 246 36186ft 371kts
27-May-18 10:19 35.999526 -112.037052 247 36189ft 371kts
27-May-18 10:20 35.960954 -112.155719 247 36189ft 371kts
27-May-18 10:21 35.922844 -112.274106 247 36191ft 371kts
27-May-18 10:22 35.884711 -112.392385 247 36184ft 371kts
27-May-18 10:23 35.846246 -112.510895 247 36177ft 371kts
27-May-18 10:24 35.807756 -112.628907 247 36169ft 371kts
27-May-18 10:25 35.769023 -112.747163 246 36161ft 370kts
27-May-18 10:26 35.730431 -112.864603 247 36153ft 370kts
27-May-18 10:27 35.691920 -112.981981 246 36143ft 369kts
27-May-18 10:28 35.652962 -113.099205 246 36125ft 369kts
27-May-18 10:29 35.614062 -113.215798 246 36109ft 368kts
27-May-18 10:30 35.575042 -113.332047 246 36095ft 368kts
27-May-18 10:31 35.535718 -113.448520 246 36079ft 368kts
27-May-18 10:32 35.496409 -113.564483 246 36065ft 368kts
27-May-18 10:33 35.457135 -113.680858 246 36058ft 368kts
27-May-18 10:34 35.417938 -113.796762 246 36048ft 368kts
27-May-18 10:35 35.378522 -113.912482 246 36049ft 368kts
27-May-18 10:36 35.338848 -114.028434 245 36044ft 367kts
27-May-18 10:37 35.299301 -114.143531 245 36035ft 367kts
27-May-18 10:38 35.259611 -114.258650 246 36015ft 368kts
27-May-18 10:39 35.219799 -114.374343 245 35989ft 368kts
27-May-18 10:40 35.179718 -114.489389 245 35966ft 368kts
27-May-18 10:41 35.139550 -114.604242 245 35960ft 368kts
27-May-18 10:42 35.099660 -114.719632 245 35962ft 368kts
27-May-18 10:43 35.059644 -114.834403 245 35968ft 368kts
27-May-18 10:44 35.017344 -114.948250 241 35974ft 367kts
27-May-18 10:45 34.968974 -115.057854 241 35978ft 367kts
27-May-18 10:46 34.921257 -115.167762 241 35981ft 367kts
27-May-18 10:47 34.873282 -115.277929 241 35987ft 367kts
27-May-18 10:48 34.825371 -115.387286 241 35994ft 366kts
27-May-18 10:49 34.778827 -115.497332 244 36002ft 366kts
27-May-18 10:50 34.737715 -115.610991 245 36015ft 366kts
27-May-18 10:51 34.696411 -115.723764 244 36022ft 365kts
27-May-18 10:52 34.654783 -115.836643 244 36023ft 365kts
27-May-18 10:53 34.614210 -115.947386 244 35035ft 349kts
27-May-18 10:54 34.575302 -116.052667 244 33437ft 335kts
27-May-18 10:55 34.537679 -116.154405 244 31904ft 324kts
27-May-18 10:56 34.501179 -116.252527 244 30455ft 315kts
27-May-18 10:57 34.463666 -116.352560 244 28985ft 331kts
27-May-18 10:58 34.432043 -116.436645 244 27725ft 325kts
27-May-18 10:59 34.393365 -116.534553 242 26248ft 320kts
27-May-18 11:00 34.353306 -116.631421 242 24502ft 334kts
27-May-18 11:01 34.310138 -116.737859 243 23201ft 356kts
27-May-18 11:02 34.267527 -116.843642 242 21523ft 346kts
27-May-18 11:03 34.225537 -116.947351 242 19887ft 339kts
27-May-18 11:04 34.192143 -117.052688 250 18340ft 334kts
27-May-18 11:05 34.163724 -117.158163 249 17055ft 323kts
27-May-18 11:06 34.135337 -117.261574 249 15467ft 323kts
27-May-18 11:07 34.107095 -117.363715 249 14144ft 318kts
27-May-18 11:08 34.082061 -117.462991 251 12796ft 304kts
27-May-18 11:09 34.052799 -117.557424 243 12015ft 300kts
27-May-18 11:10 34.020221 -117.645750 244 11126ft 279kts
27-May-18 11:11 34.001132 -117.730365 262 9825ft 288kts
27-May-18 11:12 33.992499 -117.830304 261 7841ft 308kts
27-May-18 11:13 33.984226 -117.924277 260 6716ft 274kts
27-May-18 11:14 33.975310 -118.006759 261 5792ft 244kts
27-May-18 11:15 33.967499 -118.084262 261 4846ft 230kts
27-May-18 11:16 33.960498 -118.156390 261 3768ft 229kts
27-May-18 11:17 33.953196 -118.228017 261 2624ft 195kts
27-May-18 11:18 33.947224 -118.286416 261 1686ft 151kts
27-May-18 11:19 33.942402 -118.331273 259 979ft 133kts
27-May-18 11:20 33.938024 -118.375643 261 291ft 132kts
27-May-18 11:21 33.935319 -118.403198 268 134ft 24kts
27-May-18 11:22 33.935805 -118.407978 284 134ft 17kts
27-May-18 11:23 33.937931 -118.408191 82 134ft 8kts
27-May-18 11:24 33.938507 -118.403100 42 134ft 7kts
27-May-18 11:25 33.940595 -118.403655 263 134ft 3kts

Navigation Log

Ident Type
Flight plan parsing failed, navigation log unavailable